sensor_id;sensor_type;location;lat;lon;timestamp;P1;durP1;ratioP1;P2;durP2;ratioP2
39694;SDS011;25367;-35.352;149.036;2023-11-21T00:02:25;2.53;;;0.63;;
39694;SDS011;25367;-35.352;149.036;2023-11-21T00:04:54;2.30;;;1.10;;
39694;SDS011;25367;-35.352;149.036;2023-11-21T00:07:24;3.35;;;1.00;;
39694;SDS011;25367;-35.352;149.036;2023-11-21T00:09:53;2.15;;;0.95;;
39694;SDS011;25367;-35.352;149.036;2023-11-21T00:12:23;2.67;;;0.93;;
39694;SDS011;25367;-35.352;149.036;2023-11-21T00:14:52;4.70;;;0.95;;
39694;SDS011;25367;-35.352;149.036;2023-11-21T00:17:25;3.83;;;1.10;;
39694;SDS011;25367;-35.352;149.036;2023-11-21T00:19:55;2.50;;;0.95;;
39694;SDS011;25367;-35.352;149.036;2023-11-21T00:22:25;3.45;;;1.00;;
39694;SDS011;25367;-35.352;149.036;2023-11-21T00:24:54;0.90;;;0.63;;
39694;SDS011;25367;-35.352;149.036;2023-11-21T00:27:23;4.32;;;1.02;;
39694;SDS011;25367;-35.352;149.036;2023-11-21T00:29:53;3.33;;;0.90;;
39694;SDS011;25367;-35.352;149.036;2023-11-21T00:32:26;3.38;;;1.00;;
39694;SDS011;25367;-35.352;149.036;2023-11-21T00:34:56;3.58;;;1.13;;
39694;SDS011;25367;-35.352;149.036;2023-11-21T00:37:26;3.22;;;0.90;;
39694;SDS011;25367;-35.352;149.036;2023-11-21T00:39:55;1.95;;;0.80;;
39694;SDS011;25367;-35.352;149.036;2023-11-21T00:42:25;5.10;;;1.08;;
39694;SDS011;25367;-35.352;149.036;2023-11-21T00:44:54;3.20;;;1.05;;
39694;SDS011;25367;-35.352;149.036;2023-11-21T00:47:28;2.33;;;1.00;;
39694;SDS011;25367;-35.352;149.036;2023-11-21T00:52:26;0.98;;;0.75;;
39694;SDS011;25367;-35.352;149.036;2023-11-21T00:54:56;3.80;;;1.25;;
39694;SDS011;25367;-35.352;149.036;2023-11-21T00:57:25;3.17;;;1.17;;
39694;SDS011;25367;-35.352;149.036;2023-11-21T00:59:55;6.15;;;1.63;;
39694;SDS011;25367;-35.352;149.036;2023-11-21T01:02:28;2.15;;;0.90;;
39694;SDS011;25367;-35.352;149.036;2023-11-21T01:04:57;1.40;;;0.77;;
39694;SDS011;25367;-35.352;149.036;2023-11-21T01:07:27;2.25;;;0.80;;
39694;SDS011;25367;-35.352;149.036;2023-11-21T01:09:56;3.72;;;0.90;;
39694;SDS011;25367;-35.352;149.036;2023-11-21T01:12:26;2.72;;;0.65;;
39694;SDS011;25367;-35.352;149.036;2023-11-21T01:14:56;3.47;;;1.10;;
39694;SDS011;25367;-35.352;149.036;2023-11-21T01:17:29;2.55;;;0.70;;
39694;SDS011;25367;-35.352;149.036;2023-11-21T01:22:26;2.25;;;0.90;;
39694;SDS011;25367;-35.352;149.036;2023-11-21T01:24:56;1.75;;;0.90;;
39694;SDS011;25367;-35.352;149.036;2023-11-21T01:27:25;2.50;;;1.10;;
39694;SDS011;25367;-35.352;149.036;2023-11-21T01:29:55;1.70;;;0.80;;
39694;SDS011;25367;-35.352;149.036;2023-11-21T01:32:24;4.13;;;1.60;;
39694;SDS011;25367;-35.352;149.036;2023-11-21T01:34:57;1.48;;;0.73;;
39694;SDS011;25367;-35.352;149.036;2023-11-21T01:37:27;1.90;;;1.08;;
39694;SDS011;25367;-35.352;149.036;2023-11-21T01:39:56;5.45;;;1.02;;
39694;SDS011;25367;-35.352;149.036;2023-11-21T01:42:26;2.97;;;0.98;;
39694;SDS011;25367;-35.352;149.036;2023-11-21T01:44:55;2.83;;;1.33;;
39694;SDS011;25367;-35.352;149.036;2023-11-21T01:47:25;3.17;;;1.00;;
39694;SDS011;25367;-35.352;149.036;2023-11-21T01:49:57;4.70;;;0.70;;
39694;SDS011;25367;-35.352;149.036;2023-11-21T01:52:29;2.28;;;1.00;;
39694;SDS011;25367;-35.352;149.036;2023-11-21T01:54:59;2.15;;;0.90;;
39694;SDS011;25367;-35.352;149.036;2023-11-21T01:57:28;5.50;;;0.93;;
39694;SDS011;25367;-35.352;149.036;2023-11-21T01:59:58;2.10;;;1.10;;
39694;SDS011;25367;-35.352;149.036;2023-11-21T02:02:31;1.40;;;0.60;;
39694;SDS011;25367;-35.352;149.036;2023-11-21T02:05:01;3.10;;;0.82;;
39694;SDS011;25367;-35.352;149.036;2023-11-21T02:07:31;1.60;;;1.10;;
39694;SDS011;25367;-35.352;149.036;2023-11-21T02:10:01;2.63;;;1.02;;
39694;SDS011;25367;-35.352;149.036;2023-11-21T02:12:30;2.10;;;1.17;;
39694;SDS011;25367;-35.352;149.036;2023-11-21T02:15:00;5.35;;;1.30;;
39694;SDS011;25367;-35.352;149.036;2023-11-21T02:17:32;1.65;;;1.10;;
39694;SDS011;25367;-35.352;149.036;2023-11-21T02:20:02;2.73;;;1.17;;
39694;SDS011;25367;-35.352;149.036;2023-11-21T02:22:31;1.95;;;1.48;;
39694;SDS011;25367;-35.352;149.036;2023-11-21T02:25:10;5.50;;;1.35;;
39694;SDS011;25367;-35.352;149.036;2023-11-21T02:27:40;4.30;;;1.45;;
39694;SDS011;25367;-35.352;149.036;2023-11-21T02:30:10;9.00;;;1.80;;
39694;SDS011;25367;-35.352;149.036;2023-11-21T02:32:40;3.72;;;1.75;;
39694;SDS011;25367;-35.352;149.036;2023-11-21T02:35:09;4.28;;;1.50;;
39694;SDS011;25367;-35.352;149.036;2023-11-21T02:37:39;4.30;;;1.40;;
39694;SDS011;25367;-35.352;149.036;2023-11-21T02:40:11;5.05;;;1.55;;
39694;SDS011;25367;-35.352;149.036;2023-11-21T02:42:40;5.27;;;1.60;;
39694;SDS011;25367;-35.352;149.036;2023-11-21T02:45:10;3.17;;;1.73;;
39694;SDS011;25367;-35.352;149.036;2023-11-21T02:47:40;2.45;;;1.30;;
39694;SDS011;25367;-35.352;149.036;2023-11-21T02:50:10;2.08;;;1.30;;
39694;SDS011;25367;-35.352;149.036;2023-11-21T02:52:40;4.88;;;1.73;;
39694;SDS011;25367;-35.352;149.036;2023-11-21T02:55:11;2.67;;;1.38;;
39694;SDS011;25367;-35.352;149.036;2023-11-21T02:57:40;3.53;;;1.42;;
39694;SDS011;25367;-35.352;149.036;2023-11-21T03:00:10;3.13;;;1.60;;
39694;SDS011;25367;-35.352;149.036;2023-11-21T03:02:40;3.78;;;1.20;;
39694;SDS011;25367;-35.352;149.036;2023-11-21T03:05:09;4.28;;;1.17;;
39694;SDS011;25367;-35.352;149.036;2023-11-21T03:07:39;7.28;;;1.52;;
39694;SDS011;25367;-35.352;149.036;2023-11-21T03:10:12;11.15;;;1.40;;
39694;SDS011;25367;-35.352;149.036;2023-11-21T03:15:10;2.08;;;1.30;;
39694;SDS011;25367;-35.352;149.036;2023-11-21T03:17:40;7.38;;;1.55;;
39694;SDS011;25367;-35.352;149.036;2023-11-21T03:20:10;2.25;;;1.00;;
39694;SDS011;25367;-35.352;149.036;2023-11-21T03:22:40;1.70;;;1.27;;
39694;SDS011;25367;-35.352;149.036;2023-11-21T03:25:13;6.35;;;1.30;;
39694;SDS011;25367;-35.352;149.036;2023-11-21T03:27:43;5.85;;;1.17;;
39694;SDS011;25367;-35.352;149.036;2023-11-21T03:30:13;2.45;;;1.20;;
39694;SDS011;25367;-35.352;149.036;2023-11-21T03:32:43;1.73;;;1.02;;
39694;SDS011;25367;-35.352;149.036;2023-11-21T03:35:12;5.95;;;1.52;;
39694;SDS011;25367;-35.352;149.036;2023-11-21T03:37:42;2.03;;;1.00;;
39694;SDS011;25367;-35.352;149.036;2023-11-21T03:40:15;2.58;;;1.15;;
39694;SDS011;25367;-35.352;149.036;2023-11-21T03:42:45;5.07;;;1.10;;
39694;SDS011;25367;-35.352;149.036;2023-11-21T03:45:14;1.77;;;1.30;;
39694;SDS011;25367;-35.352;149.036;2023-11-21T03:47:44;4.82;;;1.20;;
39694;SDS011;25367;-35.352;149.036;2023-11-21T03:50:13;5.55;;;1.35;;
39694;SDS011;25367;-35.352;149.036;2023-11-21T03:52:45;1.42;;;1.10;;
39694;SDS011;25367;-35.352;149.036;2023-11-21T03:55:18;3.47;;;1.17;;
39694;SDS011;25367;-35.352;149.036;2023-11-21T04:00:16;4.20;;;1.00;;
39694;SDS011;25367;-35.352;149.036;2023-11-21T04:02:46;2.42;;;1.30;;
39694;SDS011;25367;-35.352;149.036;2023-11-21T04:05:15;1.75;;;1.05;;
39694;SDS011;25367;-35.352;149.036;2023-11-21T04:07:45;2.75;;;1.17;;
39694;SDS011;25367;-35.352;149.036;2023-11-21T04:10:14;1.52;;;1.13;;
39694;SDS011;25367;-35.352;149.036;2023-11-21T04:12:47;2.85;;;1.20;;
39694;SDS011;25367;-35.352;149.036;2023-11-21T04:15:16;2.97;;;1.65;;
39694;SDS011;25367;-35.352;149.036;2023-11-21T04:17:45;2.72;;;1.05;;
39694;SDS011;25367;-35.352;149.036;2023-11-21T04:20:15;2.40;;;1.00;;
39694;SDS011;25367;-35.352;149.036;2023-11-21T04:22:44;2.47;;;1.50;;
39694;SDS011;25367;-35.352;149.036;2023-11-21T04:25:14;10.38;;;1.20;;
39694;SDS011;25367;-35.352;149.036;2023-11-21T04:27:47;1.80;;;1.08;;
39694;SDS011;25367;-35.352;149.036;2023-11-21T04:30:17;1.98;;;1.70;;
39694;SDS011;25367;-35.352;149.036;2023-11-21T04:32:46;1.70;;;1.10;;
39694;SDS011;25367;-35.352;149.036;2023-11-21T04:35:16;4.50;;;1.38;;
39694;SDS011;25367;-35.352;149.036;2023-11-21T04:37:46;3.03;;;1.10;;
39694;SDS011;25367;-35.352;149.036;2023-11-21T04:40:19;1.98;;;1.10;;
39694;SDS011;25367;-35.352;149.036;2023-11-21T04:42:48;1.92;;;1.20;;
39694;SDS011;25367;-35.352;149.036;2023-11-21T04:45:18;1.95;;;1.00;;
39694;SDS011;25367;-35.352;149.036;2023-11-21T04:47:48;3.50;;;1.08;;
39694;SDS011;25367;-35.352;149.036;2023-11-21T04:50:17;2.22;;;1.10;;
39694;SDS011;25367;-35.352;149.036;2023-11-21T04:52:47;7.85;;;2.38;;
39694;SDS011;25367;-35.352;149.036;2023-11-21T04:55:20;9.35;;;2.42;;
39694;SDS011;25367;-35.352;149.036;2023-11-21T04:57:49;5.45;;;3.78;;
39694;SDS011;25367;-35.352;149.036;2023-11-21T05:00:19;5.32;;;3.08;;
39694;SDS011;25367;-35.352;149.036;2023-11-21T05:02:48;9.13;;;3.15;;
39694;SDS011;25367;-35.352;149.036;2023-11-21T05:05:18;6.97;;;3.00;;
39694;SDS011;25367;-35.352;149.036;2023-11-21T05:07:48;7.35;;;3.25;;
39694;SDS011;25367;-35.352;149.036;2023-11-21T05:10:21;6.65;;;2.90;;
39694;SDS011;25367;-35.352;149.036;2023-11-21T05:12:51;3.38;;;2.78;;
39694;SDS011;25367;-35.352;149.036;2023-11-21T05:15:20;4.93;;;2.83;;
39694;SDS011;25367;-35.352;149.036;2023-11-21T05:17:50;7.10;;;3.13;;
39694;SDS011;25367;-35.352;149.036;2023-11-21T05:20:20;3.92;;;2.50;;
39694;SDS011;25367;-35.352;149.036;2023-11-21T05:22:49;3.55;;;2.72;;
39694;SDS011;25367;-35.352;149.036;2023-11-21T05:25:22;6.45;;;3.35;;
39694;SDS011;25367;-35.352;149.036;2023-11-21T05:27:52;6.35;;;2.90;;
39694;SDS011;25367;-35.352;149.036;2023-11-21T05:30:22;3.70;;;3.00;;
39694;SDS011;25367;-35.352;149.036;2023-11-21T05:32:51;4.40;;;2.60;;
39694;SDS011;25367;-35.352;149.036;2023-11-21T05:35:21;5.28;;;2.90;;
39694;SDS011;25367;-35.352;149.036;2023-11-21T05:37:51;4.25;;;2.90;;
39694;SDS011;25367;-35.352;149.036;2023-11-21T05:40:23;7.10;;;3.08;;
39694;SDS011;25367;-35.352;149.036;2023-11-21T05:42:53;3.35;;;2.85;;
39694;SDS011;25367;-35.352;149.036;2023-11-21T05:45:22;6.65;;;3.03;;
39694;SDS011;25367;-35.352;149.036;2023-11-21T05:47:52;4.35;;;2.85;;
39694;SDS011;25367;-35.352;149.036;2023-11-21T05:50:22;3.95;;;2.70;;
39694;SDS011;25367;-35.352;149.036;2023-11-21T05:52:51;5.05;;;3.05;;
39694;SDS011;25367;-35.352;149.036;2023-11-21T05:55:24;3.35;;;2.63;;
39694;SDS011;25367;-35.352;149.036;2023-11-21T05:57:53;5.72;;;2.90;;
39694;SDS011;25367;-35.352;149.036;2023-11-21T06:00:23;3.13;;;2.78;;
39694;SDS011;25367;-35.352;149.036;2023-11-21T06:02:52;6.88;;;3.05;;
39694;SDS011;25367;-35.352;149.036;2023-11-21T06:05:22;7.13;;;2.80;;
39694;SDS011;25367;-35.352;149.036;2023-11-21T06:07:55;4.70;;;2.90;;
39694;SDS011;25367;-35.352;149.036;2023-11-21T06:10:28;4.30;;;2.70;;
39694;SDS011;25367;-35.352;149.036;2023-11-21T06:12:57;5.35;;;2.80;;
39694;SDS011;25367;-35.352;149.036;2023-11-21T06:15:27;5.32;;;2.28;;
39694;SDS011;25367;-35.352;149.036;2023-11-21T06:17:57;3.50;;;2.35;;
39694;SDS011;25367;-35.352;149.036;2023-11-21T06:20:26;5.05;;;2.35;;
39694;SDS011;25367;-35.352;149.036;2023-11-21T06:22:56;4.72;;;3.05;;
39694;SDS011;25367;-35.352;149.036;2023-11-21T06:25:29;4.72;;;2.28;;
39694;SDS011;25367;-35.352;149.036;2023-11-21T06:27:58;4.45;;;2.58;;
39694;SDS011;25367;-35.352;149.036;2023-11-21T06:30:28;3.10;;;2.25;;
39694;SDS011;25367;-35.352;149.036;2023-11-21T06:32:57;4.32;;;2.35;;
39694;SDS011;25367;-35.352;149.036;2023-11-21T06:35:27;3.90;;;2.55;;
39694;SDS011;25367;-35.352;149.036;2023-11-21T06:37:56;4.10;;;2.88;;
39694;SDS011;25367;-35.352;149.036;2023-11-21T06:40:29;7.88;;;2.33;;
39694;SDS011;25367;-35.352;149.036;2023-11-21T06:42:58;3.00;;;2.15;;
39694;SDS011;25367;-35.352;149.036;2023-11-21T06:45:28;3.75;;;2.45;;
39694;SDS011;25367;-35.352;149.036;2023-11-21T06:47:58;4.10;;;2.28;;
39694;SDS011;25367;-35.352;149.036;2023-11-21T06:50:27;3.83;;;2.17;;
39694;SDS011;25367;-35.352;149.036;2023-11-21T06:52:57;3.42;;;2.35;;
39694;SDS011;25367;-35.352;149.036;2023-11-21T06:55:29;4.53;;;2.13;;
39694;SDS011;25367;-35.352;149.036;2023-11-21T06:57:59;6.40;;;2.47;;
39694;SDS011;25367;-35.352;149.036;2023-11-21T07:00:28;2.13;;;1.92;;
39694;SDS011;25367;-35.352;149.036;2023-11-21T07:02:57;2.78;;;2.10;;
39694;SDS011;25367;-35.352;149.036;2023-11-21T07:05:27;3.40;;;2.25;;
39694;SDS011;25367;-35.352;149.036;2023-11-21T07:07:56;3.17;;;2.03;;
39694;SDS011;25367;-35.352;149.036;2023-11-21T07:10:26;3.25;;;2.28;;
39694;SDS011;25367;-35.352;149.036;2023-11-21T07:12:58;3.58;;;2.28;;
39694;SDS011;25367;-35.352;149.036;2023-11-21T07:15:28;2.70;;;2.10;;
39694;SDS011;25367;-35.352;149.036;2023-11-21T07:17:57;2.88;;;2.05;;
39694;SDS011;25367;-35.352;149.036;2023-11-21T07:20:27;3.05;;;2.03;;
39694;SDS011;25367;-35.352;149.036;2023-11-21T07:22:57;6.38;;;1.80;;
39694;SDS011;25367;-35.352;149.036;2023-11-21T07:25:26;2.85;;;2.10;;
39694;SDS011;25367;-35.352;149.036;2023-11-21T07:27:58;2.85;;;1.77;;
39694;SDS011;25367;-35.352;149.036;2023-11-21T07:30:28;2.95;;;1.95;;
39694;SDS011;25367;-35.352;149.036;2023-11-21T07:32:58;3.95;;;2.08;;
39694;SDS011;25367;-35.352;149.036;2023-11-21T07:35:28;4.07;;;2.10;;
39694;SDS011;25367;-35.352;149.036;2023-11-21T07:37:58;7.65;;;2.08;;
39694;SDS011;25367;-35.352;149.036;2023-11-21T07:40:30;1.60;;;1.33;;
39694;SDS011;25367;-35.352;149.036;2023-11-21T07:42:59;4.00;;;1.15;;
39694;SDS011;25367;-35.352;149.036;2023-11-21T07:45:29;2.20;;;1.00;;
39694;SDS011;25367;-35.352;149.036;2023-11-21T07:47:58;1.98;;;1.20;;
39694;SDS011;25367;-35.352;149.036;2023-11-21T07:50:28;1.23;;;0.95;;
39694;SDS011;25367;-35.352;149.036;2023-11-21T07:52:58;2.40;;;0.95;;
39694;SDS011;25367;-35.352;149.036;2023-11-21T07:55:29;4.53;;;1.23;;
39694;SDS011;25367;-35.352;149.036;2023-11-21T07:57:59;1.60;;;0.82;;
39694;SDS011;25367;-35.352;149.036;2023-11-21T08:00:28;2.20;;;1.10;;
39694;SDS011;25367;-35.352;149.036;2023-11-21T08:02:58;2.60;;;0.77;;
39694;SDS011;25367;-35.352;149.036;2023-11-21T08:05:27;7.38;;;1.05;;
39694;SDS011;25367;-35.352;149.036;2023-11-21T08:07:57;3.55;;;1.08;;
39694;SDS011;25367;-35.352;149.036;2023-11-21T08:10:26;1.80;;;0.85;;
39694;SDS011;25367;-35.352;149.036;2023-11-21T08:12:58;1.33;;;0.80;;
39694;SDS011;25367;-35.352;149.036;2023-11-21T08:15:27;4.32;;;1.10;;
39694;SDS011;25367;-35.352;149.036;2023-11-21T08:17:57;4.63;;;1.10;;
39694;SDS011;25367;-35.352;149.036;2023-11-21T08:20:26;5.07;;;0.85;;
39694;SDS011;25367;-35.352;149.036;2023-11-21T08:22:55;1.80;;;0.70;;
39694;SDS011;25367;-35.352;149.036;2023-11-21T08:25:25;4.40;;;1.33;;
39694;SDS011;25367;-35.352;149.036;2023-11-21T08:27:56;1.58;;;0.80;;
39694;SDS011;25367;-35.352;149.036;2023-11-21T08:30:26;3.35;;;0.98;;
39694;SDS011;25367;-35.352;149.036;2023-11-21T08:32:55;1.55;;;0.70;;
39694;SDS011;25367;-35.352;149.036;2023-11-21T08:35:25;0.95;;;0.73;;
39694;SDS011;25367;-35.352;149.036;2023-11-21T08:38:00;2.25;;;0.88;;
39694;SDS011;25367;-35.352;149.036;2023-11-21T08:40:29;1.60;;;0.90;;
39694;SDS011;25367;-35.352;149.036;2023-11-21T08:43:00;1.92;;;0.80;;
39694;SDS011;25367;-35.352;149.036;2023-11-21T08:45:30;2.33;;;1.05;;
39694;SDS011;25367;-35.352;149.036;2023-11-21T08:47:59;1.45;;;0.80;;
39694;SDS011;25367;-35.352;149.036;2023-11-21T08:50:29;2.72;;;0.73;;
39694;SDS011;25367;-35.352;149.036;2023-11-21T08:52:59;2.97;;;0.70;;
39694;SDS011;25367;-35.352;149.036;2023-11-21T08:55:28;4.28;;;0.90;;
39694;SDS011;25367;-35.352;149.036;2023-11-21T08:57:58;1.83;;;0.95;;
39694;SDS011;25367;-35.352;149.036;2023-11-21T09:00:29;2.00;;;0.82;;
39694;SDS011;25367;-35.352;149.036;2023-11-21T09:03:02;2.75;;;0.90;;
39694;SDS011;25367;-35.352;149.036;2023-11-21T09:05:32;4.07;;;1.17;;
39694;SDS011;25367;-35.352;149.036;2023-11-21T09:08:01;2.42;;;0.82;;
39694;SDS011;25367;-35.352;149.036;2023-11-21T09:10:30;2.85;;;1.10;;
39694;SDS011;25367;-35.352;149.036;2023-11-21T09:13:03;3.33;;;1.27;;
39694;SDS011;25367;-35.352;149.036;2023-11-21T09:15:32;3.67;;;0.90;;
39694;SDS011;25367;-35.352;149.036;2023-11-21T09:18:02;1.55;;;0.80;;
39694;SDS011;25367;-35.352;149.036;2023-11-21T09:20:32;3.88;;;0.90;;
39694;SDS011;25367;-35.352;149.036;2023-11-21T09:23:02;2.85;;;1.40;;
39694;SDS011;25367;-35.352;149.036;2023-11-21T09:25:31;1.38;;;0.95;;
39694;SDS011;25367;-35.352;149.036;2023-11-21T09:28:05;3.58;;;1.08;;
39694;SDS011;25367;-35.352;149.036;2023-11-21T09:30:34;1.00;;;0.90;;
39694;SDS011;25367;-35.352;149.036;2023-11-21T09:33:04;2.42;;;1.25;;
39694;SDS011;25367;-35.352;149.036;2023-11-21T09:35:33;1.80;;;1.23;;
39694;SDS011;25367;-35.352;149.036;2023-11-21T09:38:02;2.58;;;1.33;;
39694;SDS011;25367;-35.352;149.036;2023-11-21T09:40:32;4.25;;;1.15;;
39694;SDS011;25367;-35.352;149.036;2023-11-21T09:43:05;1.50;;;1.10;;
39694;SDS011;25367;-35.352;149.036;2023-11-21T09:45:36;3.40;;;1.63;;
39694;SDS011;25367;-35.352;149.036;2023-11-21T09:48:08;2.47;;;1.65;;
39694;SDS011;25367;-35.352;149.036;2023-11-21T09:50:39;4.15;;;1.70;;
39694;SDS011;25367;-35.352;149.036;2023-11-21T09:53:13;3.03;;;1.90;;
39694;SDS011;25367;-35.352;149.036;2023-11-21T09:55:47;4.55;;;1.73;;
39694;SDS011;25367;-35.352;149.036;2023-11-21T09:58:19;2.85;;;1.85;;
39694;SDS011;25367;-35.352;149.036;2023-11-21T10:00:50;2.85;;;1.30;;
39694;SDS011;25367;-35.352;149.036;2023-11-21T10:03:23;5.18;;;1.90;;
39694;SDS011;25367;-35.352;149.036;2023-11-21T10:05:52;2.50;;;1.58;;
39694;SDS011;25367;-35.352;149.036;2023-11-21T10:08:23;5.32;;;1.50;;
39694;SDS011;25367;-35.352;149.036;2023-11-21T10:10:56;4.25;;;1.90;;
39694;SDS011;25367;-35.352;149.036;2023-11-21T10:13:28;2.58;;;1.52;;
39694;SDS011;25367;-35.352;149.036;2023-11-21T10:16:01;4.15;;;1.67;;
39694;SDS011;25367;-35.352;149.036;2023-11-21T10:18:34;5.70;;;1.63;;
39694;SDS011;25367;-35.352;149.036;2023-11-21T10:21:08;1.85;;;1.10;;
39694;SDS011;25367;-35.352;149.036;2023-11-21T10:23:38;4.30;;;1.45;;
39694;SDS011;25367;-35.352;149.036;2023-11-21T10:26:08;1.90;;;1.08;;
39694;SDS011;25367;-35.352;149.036;2023-11-21T10:28:41;3.35;;;1.73;;
39694;SDS011;25367;-35.352;149.036;2023-11-21T10:31:23;2.15;;;1.13;;
39694;SDS011;25367;-35.352;149.036;2023-11-21T10:33:54;6.68;;;1.50;;
39694;SDS011;25367;-35.352;149.036;2023-11-21T10:36:37;3.92;;;1.40;;
39694;SDS011;25367;-35.352;149.036;2023-11-21T10:39:07;2.72;;;1.10;;
39694;SDS011;25367;-35.352;149.036;2023-11-21T10:41:37;5.32;;;1.33;;
39694;SDS011;25367;-35.352;149.036;2023-11-21T10:44:08;8.02;;;1.10;;
39694;SDS011;25367;-35.352;149.036;2023-11-21T10:46:38;2.45;;;0.85;;
39694;SDS011;25367;-35.352;149.036;2023-11-21T10:49:09;2.25;;;1.00;;
39694;SDS011;25367;-35.352;149.036;2023-11-21T10:54:12;3.70;;;1.08;;
39694;SDS011;25367;-35.352;149.036;2023-11-21T10:56:44;4.00;;;0.98;;
39694;SDS011;25367;-35.352;149.036;2023-11-21T10:59:18;3.65;;;0.73;;
39694;SDS011;25367;-35.352;149.036;2023-11-21T11:01:47;1.63;;;0.80;;
39694;SDS011;25367;-35.352;149.036;2023-11-21T11:04:18;1.25;;;0.63;;
39694;SDS011;25367;-35.352;149.036;2023-11-21T11:06:51;2.20;;;0.90;;
39694;SDS011;25367;-35.352;149.036;2023-11-21T11:09:27;0.98;;;0.70;;
39694;SDS011;25367;-35.352;149.036;2023-11-21T11:11:58;4.38;;;1.17;;
39694;SDS011;25367;-35.352;149.036;2023-11-21T11:14:30;2.95;;;0.95;;
39694;SDS011;25367;-35.352;149.036;2023-11-21T11:17:00;3.42;;;0.68;;
39694;SDS011;25367;-35.352;149.036;2023-11-21T11:19:33;1.90;;;0.93;;
39694;SDS011;25367;-35.352;149.036;2023-11-21T21:08:27;1.48;;;0.90;;
39694;SDS011;25367;-35.352;149.036;2023-11-21T21:10:56;3.08;;;1.10;;
39694;SDS011;25367;-35.352;149.036;2023-11-21T21:13:26;2.55;;;1.13;;
39694;SDS011;25367;-35.352;149.036;2023-11-21T21:15:55;1.13;;;0.90;;
39694;SDS011;25367;-35.352;149.036;2023-11-21T21:18:24;3.53;;;0.68;;
39694;SDS011;25367;-35.352;149.036;2023-11-21T21:20:54;3.88;;;0.70;;
39694;SDS011;25367;-35.352;149.036;2023-11-21T21:23:30;2.15;;;0.90;;
39694;SDS011;25367;-35.352;149.036;2023-11-21T21:26:00;6.65;;;0.98;;
39694;SDS011;25367;-35.352;149.036;2023-11-21T21:28:29;1.75;;;0.80;;
39694;SDS011;25367;-35.352;149.036;2023-11-21T21:30:58;2.50;;;0.95;;
39694;SDS011;25367;-35.352;149.036;2023-11-21T21:33:28;3.28;;;0.90;;
39694;SDS011;25367;-35.352;149.036;2023-11-21T21:35:57;1.48;;;0.80;;
39694;SDS011;25367;-35.352;149.036;2023-11-21T21:38:30;2.00;;;0.90;;
39694;SDS011;25367;-35.352;149.036;2023-11-21T21:41:00;2.83;;;0.90;;
39694;SDS011;25367;-35.352;149.036;2023-11-21T21:43:29;1.70;;;0.70;;
39694;SDS011;25367;-35.352;149.036;2023-11-21T21:45:59;4.63;;;1.05;;
39694;SDS011;25367;-35.352;149.036;2023-11-21T21:48:28;5.65;;;1.23;;
39694;SDS011;25367;-35.352;149.036;2023-11-21T21:50:58;6.00;;;0.60;;
39694;SDS011;25367;-35.352;149.036;2023-11-21T21:53:29;5.40;;;1.00;;
39694;SDS011;25367;-35.352;149.036;2023-11-21T21:55:58;2.00;;;0.75;;
39694;SDS011;25367;-35.352;149.036;2023-11-21T21:58:28;2.72;;;0.93;;
39694;SDS011;25367;-35.352;149.036;2023-11-21T22:00:57;2.35;;;0.82;;
39694;SDS011;25367;-35.352;149.036;2023-11-21T22:03:27;5.25;;;0.95;;
39694;SDS011;25367;-35.352;149.036;2023-11-21T22:05:57;3.10;;;0.85;;
39694;SDS011;25367;-35.352;149.036;2023-11-21T22:08:30;4.45;;;0.90;;
39694;SDS011;25367;-35.352;149.036;2023-11-21T22:10:59;6.43;;;1.07;;
39694;SDS011;25367;-35.352;149.036;2023-11-21T22:13:29;4.07;;;0.80;;
39694;SDS011;25367;-35.352;149.036;2023-11-21T22:15:58;3.95;;;0.50;;
39694;SDS011;25367;-35.352;149.036;2023-11-21T22:18:28;6.18;;;0.98;;
39694;SDS011;25367;-35.352;149.036;2023-11-21T22:20:57;3.83;;;0.70;;
39694;SDS011;25367;-35.352;149.036;2023-11-21T22:23:29;1.77;;;0.60;;
39694;SDS011;25367;-35.352;149.036;2023-11-21T22:25:59;1.73;;;0.68;;
39694;SDS011;25367;-35.352;149.036;2023-11-21T22:28:28;3.65;;;0.65;;
39694;SDS011;25367;-35.352;149.036;2023-11-21T22:30:58;2.15;;;0.60;;
39694;SDS011;25367;-35.352;149.036;2023-11-21T22:33:27;2.95;;;1.08;;
39694;SDS011;25367;-35.352;149.036;2023-11-21T22:35:57;4.10;;;0.80;;
39694;SDS011;25367;-35.352;149.036;2023-11-21T22:38:28;3.25;;;0.70;;
39694;SDS011;25367;-35.352;149.036;2023-11-21T22:40:58;4.03;;;0.82;;
39694;SDS011;25367;-35.352;149.036;2023-11-21T22:43:27;1.20;;;0.60;;
39694;SDS011;25367;-35.352;149.036;2023-11-21T22:45:57;3.67;;;0.70;;
39694;SDS011;25367;-35.352;149.036;2023-11-21T22:48:26;2.55;;;0.90;;
39694;SDS011;25367;-35.352;149.036;2023-11-21T22:50:56;1.88;;;0.75;;
39694;SDS011;25367;-35.352;149.036;2023-11-21T22:53:26;2.80;;;0.80;;
39694;SDS011;25367;-35.352;149.036;2023-11-21T22:55:57;4.10;;;0.77;;
39694;SDS011;25367;-35.352;149.036;2023-11-21T22:58:27;3.80;;;0.90;;
39694;SDS011;25367;-35.352;149.036;2023-11-21T23:00:56;1.40;;;0.80;;
39694;SDS011;25367;-35.352;149.036;2023-11-21T23:03:25;1.98;;;0.85;;
39694;SDS011;25367;-35.352;149.036;2023-11-21T23:05:55;2.10;;;0.65;;
39694;SDS011;25367;-35.352;149.036;2023-11-21T23:08:24;3.83;;;0.82;;
39694;SDS011;25367;-35.352;149.036;2023-11-21T23:10:57;1.85;;;0.60;;
39694;SDS011;25367;-35.352;149.036;2023-11-21T23:13:27;3.63;;;0.70;;
39694;SDS011;25367;-35.352;149.036;2023-11-21T23:15:56;1.67;;;0.60;;
39694;SDS011;25367;-35.352;149.036;2023-11-21T23:18:26;7.30;;;0.80;;
39694;SDS011;25367;-35.352;149.036;2023-11-21T23:20:56;4.25;;;0.52;;
39694;SDS011;25367;-35.352;149.036;2023-11-21T23:23:25;5.07;;;0.70;;
39694;SDS011;25367;-35.352;149.036;2023-11-21T23:25:57;2.22;;;0.70;;
39694;SDS011;25367;-35.352;149.036;2023-11-21T23:28:26;8.52;;;0.85;;
39694;SDS011;25367;-35.352;149.036;2023-11-21T23:30:56;3.25;;;0.55;;
39694;SDS011;25367;-35.352;149.036;2023-11-21T23:33:25;2.45;;;0.82;;
39694;SDS011;25367;-35.352;149.036;2023-11-21T23:35:54;1.90;;;0.70;;
39694;SDS011;25367;-35.352;149.036;2023-11-21T23:38:24;1.23;;;0.63;;
39694;SDS011;25367;-35.352;149.036;2023-11-21T23:40:53;2.38;;;0.80;;
39694;SDS011;25367;-35.352;149.036;2023-11-21T23:43:25;1.20;;;0.60;;
39694;SDS011;25367;-35.352;149.036;2023-11-21T23:45:54;2.97;;;0.70;;
39694;SDS011;25367;-35.352;149.036;2023-11-21T23:48:23;1.17;;;0.68;;
39694;SDS011;25367;-35.352;149.036;2023-11-21T23:50:53;0.98;;;0.52;;
39694;SDS011;25367;-35.352;149.036;2023-11-21T23:53:22;3.40;;;0.85;;
39694;SDS011;25367;-35.352;149.036;2023-11-21T23:55:52;0.40;;;0.40;;
39694;SDS011;25367;-35.352;149.036;2023-11-21T23:58:23;3.58;;;0.90;;
